createdAt,value
2022-10-22T00:01:49.128Z,87.38
2022-10-22T00:04:16.012Z,87.30
2022-10-22T00:06:45.056Z,87.15
2022-10-22T00:09:13.166Z,86.99
2022-10-22T00:11:40.132Z,87.29
2022-10-22T00:14:07.098Z,87.29
2022-10-22T00:16:34.091Z,87.39
2022-10-22T00:19:01.035Z,87.34
2022-10-22T00:21:31.053Z,87.40
2022-10-22T00:23:57.977Z,87.33
2022-10-22T00:26:24.960Z,87.32
2022-10-22T00:28:51.990Z,87.38
2022-10-22T00:31:20.196Z,87.23
2022-10-22T00:33:48.130Z,87.29
2022-10-22T00:36:16.131Z,87.81
2022-10-22T00:38:43.115Z,87.57
2022-10-22T00:41:10.209Z,87.74
2022-10-22T00:43:58.441Z,87.57
2022-10-22T00:46:25.386Z,87.75
2022-10-22T00:48:52.629Z,87.67
2022-10-22T00:51:20.037Z,87.44
2022-10-22T00:53:56.351Z,87.49
2022-10-22T00:56:24.283Z,87.66
2022-10-22T00:58:58.469Z,87.53
2022-10-22T01:04:05.396Z,88.05
2022-10-22T01:06:33.526Z,87.94
2022-10-22T01:09:10.122Z,88.07
2022-10-22T01:11:42.996Z,87.81
2022-10-22T01:14:14.522Z,87.93
2022-10-22T01:16:48.384Z,88.15
2022-10-22T01:19:46.769Z,87.88
2022-10-22T01:22:20.585Z,87.96
2022-10-22T01:24:56.637Z,87.99
2022-10-22T01:27:48.158Z,88.10
2022-10-22T01:30:15.324Z,87.86
2022-10-22T01:32:48.447Z,87.96
2022-10-22T01:35:19.864Z,87.81
2022-10-22T01:37:52.969Z,88.10
2022-10-22T01:40:20.361Z,88.05
2022-10-22T01:43:02.525Z,87.77
2022-10-22T01:45:31.027Z,88.00
2022-10-22T01:48:51.806Z,87.82
2022-10-22T01:51:25.495Z,87.78
2022-10-22T01:54:03.894Z,88.05
2022-10-22T01:56:43.848Z,87.82
2022-10-22T01:59:19.114Z,88.16
2022-10-22T02:01:49.825Z,88.10
2022-10-22T02:04:26.294Z,87.79
2022-10-22T02:06:53.406Z,87.97
2022-10-22T02:09:20.664Z,88.04
2022-10-22T02:11:48.013Z,87.93
2022-10-22T02:14:15.047Z,88.18
2022-10-22T02:16:45.841Z,87.94
2022-10-22T02:19:36.461Z,87.99
2022-10-22T02:22:03.753Z,88.07
2022-10-22T02:24:30.807Z,87.92
2022-10-22T02:27:09.826Z,87.96
2022-10-22T02:29:44.120Z,87.84
2022-10-22T02:32:12.280Z,88.18
2022-10-22T02:34:39.216Z,87.89
2022-10-22T02:37:06.263Z,88.28
2022-10-22T02:39:33.215Z,88.27
2022-10-22T02:42:02.220Z,88.48
2022-10-22T02:44:31.934Z,88.23
2022-10-22T02:47:02.320Z,88.04
2022-10-22T02:49:29.482Z,88.05
2022-10-22T02:51:56.617Z,87.93
2022-10-22T02:54:23.684Z,88.19
2022-10-22T02:56:50.623Z,88.47
2022-10-22T02:59:20.402Z,88.34
2022-10-22T03:01:47.785Z,88.09
2022-10-22T03:04:14.731Z,88.26
2022-10-22T03:06:44.108Z,88.11
2022-10-22T03:09:11.308Z,88.24
2022-10-22T03:11:38.201Z,88.00
2022-10-22T03:14:05.723Z,88.16
2022-10-22T03:16:32.706Z,88.23
2022-10-22T03:19:02.088Z,88.29
2022-10-22T03:21:34.941Z,87.97
2022-10-22T03:24:06.486Z,87.76
2022-10-22T03:26:33.471Z,88.09
2022-10-22T03:29:01.036Z,88.16
2022-10-22T03:31:27.964Z,88.20
2022-10-22T03:33:55.074Z,88.08
2022-10-22T03:36:21.972Z,88.23
2022-10-22T03:38:48.846Z,87.95
2022-10-22T03:41:16.053Z,87.92
2022-10-22T03:43:43.289Z,87.88
2022-10-22T03:46:11.558Z,88.07
2022-10-22T03:48:38.424Z,88.16
2022-10-22T03:51:05.468Z,88.18
2022-10-22T03:53:32.362Z,88.18
2022-10-22T03:55:59.247Z,88.18
2022-10-22T03:58:26.329Z,88.35
2022-10-22T04:00:53.263Z,88.44
2022-10-22T04:03:20.227Z,88.57
2022-10-22T04:05:47.693Z,88.46
2022-10-22T04:08:14.577Z,88.50
2022-10-22T04:10:41.455Z,88.63
2022-10-22T04:13:08.516Z,88.56
2022-10-22T04:15:35.509Z,88.45
2022-10-22T04:18:02.429Z,88.59
2022-10-22T04:20:29.523Z,88.38
2022-10-22T04:22:56.490Z,88.77
2022-10-22T04:25:23.443Z,88.62
2022-10-22T04:27:50.563Z,88.57
2022-10-22T04:30:18.169Z,88.57
2022-10-22T04:32:45.081Z,88.56
2022-10-22T04:35:12.187Z,88.94
2022-10-22T04:37:39.536Z,88.90
2022-10-22T04:40:07.420Z,88.75
2022-10-22T04:42:34.409Z,89.01
2022-10-22T04:45:01.442Z,88.89
2022-10-22T04:47:28.421Z,88.67
2022-10-22T04:49:55.425Z,89.12
2022-10-22T04:52:22.344Z,88.98
2022-10-22T04:54:49.265Z,89.12
2022-10-22T04:57:17.626Z,89.01
2022-10-22T04:59:44.595Z,88.93
2022-10-22T05:02:11.558Z,89.00
2022-10-22T05:04:38.743Z,89.16
2022-10-22T05:07:05.738Z,88.84
2022-10-22T05:09:32.633Z,89.02
2022-10-22T05:11:59.511Z,89.12
2022-10-22T05:14:26.481Z,89.18
2022-10-22T05:16:53.834Z,89.17
2022-10-22T05:19:25.637Z,89.27
2022-10-22T05:21:53.636Z,89.27
2022-10-22T05:24:20.646Z,89.27
2022-10-22T05:26:51.662Z,89.28
2022-10-22T05:29:18.852Z,89.30
2022-10-22T05:31:45.786Z,89.22
2022-10-22T05:34:12.987Z,88.98
2022-10-22T05:36:40.058Z,89.25
2022-10-22T05:39:07.360Z,89.32
2022-10-22T05:41:35.800Z,89.41
2022-10-22T05:44:02.795Z,89.57
2022-10-22T05:46:30.841Z,89.19
2022-10-22T05:49:02.617Z,89.12
2022-10-22T05:51:32.266Z,89.46
2022-10-22T05:54:02.284Z,89.49
2022-10-22T05:56:30.613Z,89.37
2022-10-22T05:58:57.938Z,89.34
2022-10-22T06:01:30.229Z,89.47
2022-10-22T06:03:59.492Z,89.61
2022-10-22T06:06:29.202Z,89.59
2022-10-22T06:08:56.292Z,89.41
2022-10-22T06:11:23.745Z,89.26
2022-10-22T06:13:51.033Z,89.76
2022-10-22T06:16:18.405Z,89.37
2022-10-22T06:18:45.346Z,89.54
2022-10-22T06:21:14.682Z,89.57
2022-10-22T06:23:43.811Z,89.42
2022-10-22T06:26:11.457Z,89.53
2022-10-22T06:28:38.530Z,89.69
2022-10-22T06:31:05.850Z,89.71
2022-10-22T06:33:34.249Z,89.53
2022-10-22T06:36:08.680Z,89.59
2022-10-22T06:38:35.591Z,89.37
2022-10-22T06:41:04.237Z,89.63
2022-10-22T06:43:31.561Z,89.36
2022-10-22T06:46:07.504Z,89.63
2022-10-22T06:48:36.172Z,89.42
2022-10-22T06:51:04.155Z,89.42
2022-10-22T06:53:31.048Z,89.47
2022-10-22T06:55:58.566Z,89.60
2022-10-22T06:58:25.520Z,89.73
2022-10-22T07:01:02.445Z,89.15
2022-10-22T07:03:29.420Z,89.51
2022-10-22T07:05:59.629Z,89.40
2022-10-22T07:08:26.770Z,89.56
2022-10-22T07:10:53.670Z,89.48
2022-10-22T07:13:20.605Z,89.01
2022-10-22T07:15:53.652Z,89.19
2022-10-22T07:18:20.990Z,89.31
2022-10-22T07:20:48.806Z,89.26
2022-10-22T07:23:18.550Z,89.38
2022-10-22T07:25:45.487Z,89.15
2022-10-22T07:28:12.475Z,89.37
2022-10-22T07:30:39.394Z,89.46
2022-10-22T07:33:09.485Z,89.30
2022-10-22T07:35:37.970Z,89.35
2022-10-22T07:38:05.756Z,89.53
2022-10-22T07:40:32.903Z,89.69
2022-10-22T07:42:59.887Z,89.22
2022-10-22T07:45:26.874Z,89.30
2022-10-22T07:47:53.791Z,89.45
2022-10-22T07:50:20.713Z,89.52
2022-10-22T07:52:51.012Z,89.54
2022-10-22T07:55:19.111Z,89.52
2022-10-22T07:57:46.078Z,89.32
2022-10-22T08:00:13.979Z,89.27
2022-10-22T08:02:41.061Z,89.32
2022-10-22T08:05:08.609Z,89.71
2022-10-22T08:07:35.688Z,89.42
2022-10-22T08:10:02.584Z,89.39
2022-10-22T08:12:29.496Z,89.39
2022-10-22T08:14:56.594Z,89.50
2022-10-22T08:17:23.595Z,89.23
2022-10-22T08:19:50.538Z,89.47
2022-10-22T08:22:20.323Z,89.37
2022-10-22T08:24:47.811Z,89.38
2022-10-22T08:27:14.903Z,89.12
2022-10-22T08:29:41.953Z,88.80
2022-10-22T08:32:08.954Z,88.77
2022-10-22T08:34:36.085Z,88.98
2022-10-22T08:37:03.183Z,88.73
2022-10-22T08:39:31.530Z,88.77
2022-10-22T08:42:17.121Z,88.89
2022-10-22T08:44:59.650Z,88.90
2022-10-22T08:48:02.195Z,88.75
2022-10-22T08:50:40.232Z,88.90
2022-10-22T08:53:13.144Z,88.89
2022-10-22T08:55:40.054Z,88.66
2022-10-22T08:58:21.797Z,88.68
2022-10-22T09:00:59.925Z,88.83
2022-10-22T09:03:42.446Z,88.66
2022-10-22T09:06:11.594Z,88.92
2022-10-22T09:08:44.063Z,88.49
2022-10-22T09:11:13.825Z,88.63
2022-10-22T09:13:41.744Z,88.22
2022-10-22T09:16:20.082Z,88.25
2022-10-22T09:18:59.273Z,87.90
2022-10-22T09:21:47.001Z,88.23
2022-10-22T09:24:33.244Z,88.30
2022-10-22T09:27:01.884Z,88.60
2022-10-22T09:29:33.270Z,87.98
2022-10-22T09:32:00.641Z,87.88
2022-10-22T09:34:28.958Z,87.80
2022-10-22T09:37:04.759Z,87.91
2022-10-22T09:39:44.022Z,87.35
2022-10-22T09:42:11.962Z,87.54
2022-10-22T09:44:38.987Z,87.20
2022-10-22T09:47:42.908Z,87.60
2022-10-22T09:50:41.884Z,87.68
2022-10-22T09:53:25.909Z,87.58
2022-10-22T09:58:22.830Z,87.59
2022-10-22T10:00:55.934Z,87.73
2022-10-22T10:03:24.789Z,88.00
2022-10-22T10:06:01.406Z,88.20
2022-10-22T10:08:32.237Z,88.06
2022-10-22T10:11:06.494Z,87.70
2022-10-22T10:13:39.485Z,88.15
2022-10-22T10:16:30.740Z,87.94
2022-10-22T10:19:10.606Z,87.97
2022-10-22T10:21:52.201Z,88.08
2022-10-22T10:24:24.500Z,87.88
2022-10-22T10:27:19.836Z,87.84
2022-10-22T10:29:50.242Z,87.78
2022-10-22T10:32:32.426Z,87.84
2022-10-22T10:35:16.664Z,87.60
2022-10-22T10:37:50.054Z,88.06
2022-10-22T10:40:42.849Z,87.58
2022-10-22T10:43:16.022Z,88.08
2022-10-22T10:45:59.245Z,87.78
2022-10-22T10:48:43.438Z,87.50
2022-10-22T10:51:50.445Z,87.52
2022-10-22T10:54:18.004Z,87.35
2022-10-22T10:56:59.116Z,87.23
2022-10-22T10:59:51.319Z,86.45
2022-10-22T11:02:27.961Z,86.90
2022-10-22T11:05:08.936Z,86.20
2022-10-22T11:07:41.054Z,86.23
2022-10-22T11:10:22.465Z,85.90
2022-10-22T11:12:51.512Z,86.27
2022-10-22T11:15:28.997Z,85.76
2022-10-22T11:17:58.135Z,85.52
2022-10-22T11:21:03.794Z,85.81
2022-10-22T11:23:36.315Z,85.21
2022-10-22T11:26:03.287Z,85.40
2022-10-22T11:28:34.260Z,84.91
2022-10-22T11:31:03.613Z,85.20
2022-10-22T11:33:42.757Z,85.07
2022-10-22T11:36:09.680Z,84.54
2022-10-22T11:38:36.876Z,84.81
2022-10-22T11:41:07.597Z,84.46
2022-10-22T11:43:48.124Z,84.61
2022-10-22T11:46:26.369Z,84.64
2022-10-22T11:49:24.478Z,84.63
2022-10-22T11:51:52.713Z,84.26
2022-10-22T11:54:31.942Z,84.64
2022-10-22T11:57:17.005Z,84.42
2022-10-22T11:59:49.749Z,84.03
2022-10-22T12:02:28.919Z,84.01
2022-10-22T12:04:56.339Z,83.79
2022-10-22T12:07:52.189Z,84.00
2022-10-22T12:10:20.691Z,84.03
2022-10-22T12:13:12.435Z,83.70
2022-10-22T12:15:49.084Z,83.61
2022-10-22T12:18:17.432Z,83.56
2022-10-22T12:20:44.554Z,83.47
2022-10-22T12:23:12.556Z,83.35
2022-10-22T12:25:40.134Z,82.82
2022-10-22T12:28:13.003Z,82.88
2022-10-22T12:30:41.571Z,82.91
2022-10-22T12:33:20.064Z,82.50
2022-10-22T12:35:49.200Z,82.61
2022-10-22T12:38:21.704Z,82.37
2022-10-22T12:40:51.481Z,81.78
2022-10-22T12:43:27.579Z,81.68
2022-10-22T12:45:54.941Z,81.52
2022-10-22T12:48:25.732Z,81.38
2022-10-22T12:50:58.415Z,80.44
2022-10-22T12:53:29.591Z,80.40
2022-10-22T12:55:58.049Z,80.49
2022-10-22T12:58:32.163Z,80.11
2022-10-22T13:01:02.293Z,79.58
2022-10-22T13:03:39.864Z,78.63
2022-10-22T13:06:19.070Z,78.37
2022-10-22T13:09:07.643Z,77.62
2022-10-22T13:11:39.117Z,76.98
2022-10-22T13:14:18.571Z,76.08
2022-10-22T13:17:24.149Z,75.92
2022-10-22T13:20:02.333Z,76.09
2022-10-22T13:22:36.444Z,75.89
2022-10-22T13:25:19.237Z,75.74
2022-10-22T13:27:48.073Z,75.44
2022-10-22T13:30:21.209Z,75.57
2022-10-22T13:32:52.991Z,74.81
2022-10-22T13:35:21.992Z,74.91
2022-10-22T13:37:49.063Z,74.70
2022-10-22T13:40:17.527Z,74.54
2022-10-22T13:42:48.122Z,74.67
2022-10-22T13:45:15.093Z,74.20
2022-10-22T13:47:43.385Z,74.30
2022-10-22T13:50:15.724Z,74.14
2022-10-22T13:52:44.963Z,74.06
2022-10-22T13:55:22.488Z,74.02
2022-10-22T13:57:49.734Z,73.19
2022-10-22T14:00:21.036Z,72.78
2022-10-22T14:02:50.320Z,72.40
2022-10-22T14:05:20.799Z,72.02
2022-10-22T14:07:48.453Z,72.31
2022-10-22T14:10:23.612Z,71.83
2022-10-22T14:12:53.483Z,71.67
2022-10-22T14:15:29.276Z,71.56
2022-10-22T14:17:58.983Z,70.99
2022-10-22T14:20:34.548Z,70.67
2022-10-22T14:23:15.012Z,71.18
2022-10-22T14:25:42.866Z,71.13
2022-10-22T14:28:11.543Z,71.09
2022-10-22T14:30:39.396Z,70.48
2022-10-22T14:33:33.104Z,70.89
2022-10-22T14:36:02.214Z,70.85
2022-10-22T14:38:35.481Z,70.96
2022-10-22T14:41:02.451Z,71.03
2022-10-22T14:43:31.490Z,70.59
2022-10-22T14:45:59.122Z,70.92
2022-10-22T14:48:26.158Z,70.78
2022-10-22T14:50:53.141Z,71.12
2022-10-22T14:53:20.180Z,70.68
2022-10-22T14:55:49.247Z,70.90
2022-10-22T14:58:16.691Z,70.81
2022-10-22T15:00:44.265Z,71.30
2022-10-22T15:03:11.837Z,70.79
2022-10-22T15:05:44.605Z,71.17
2022-10-22T15:08:13.282Z,71.18
2022-10-22T15:10:40.507Z,70.93
2022-10-22T15:13:07.660Z,70.92
2022-10-22T15:15:39.414Z,71.19
2022-10-22T15:18:07.063Z,71.05
2022-10-22T15:20:33.947Z,71.60
2022-10-22T15:23:00.947Z,71.42
2022-10-22T15:25:28.816Z,70.97
2022-10-22T15:27:59.674Z,71.09
2022-10-22T15:30:32.365Z,71.83
2022-10-22T15:32:59.282Z,71.77
2022-10-22T15:35:28.576Z,71.81
2022-10-22T15:37:55.581Z,71.77
2022-10-22T15:40:22.481Z,72.08
2022-10-22T15:42:49.382Z,72.15
2022-10-22T15:45:19.588Z,72.50
2022-10-22T15:47:50.759Z,72.28
2022-10-22T15:50:18.974Z,72.54
2022-10-22T15:52:45.874Z,72.92
2022-10-22T15:57:40.219Z,72.91
2022-10-22T16:00:08.588Z,73.15
2022-10-22T16:02:35.617Z,72.99
2022-10-22T16:05:02.697Z,73.64
2022-10-22T16:07:30.773Z,73.75
2022-10-22T16:10:00.693Z,74.08
2022-10-22T16:12:27.852Z,73.91
2022-10-22T16:14:54.925Z,74.02
2022-10-22T16:17:22.045Z,74.15
2022-10-22T16:19:48.957Z,74.63
2022-10-22T16:22:15.863Z,74.58
2022-10-22T16:24:43.072Z,74.29
2022-10-22T16:27:10.527Z,74.98
2022-10-22T16:29:38.535Z,74.78
2022-10-22T16:32:05.704Z,75.30
2022-10-22T16:34:32.607Z,74.95
2022-10-22T16:36:59.577Z,75.37
2022-10-22T16:39:26.521Z,75.54
2022-10-22T16:41:53.459Z,75.52
2022-10-22T16:44:23.788Z,75.46
2022-10-22T16:46:50.848Z,75.53
2022-10-22T16:49:18.014Z,75.49
2022-10-22T16:51:44.984Z,75.29
2022-10-22T16:54:12.573Z,75.73
2022-10-22T16:56:39.633Z,75.64
2022-10-22T16:59:06.561Z,75.94
2022-10-22T17:01:37.866Z,75.61
2022-10-22T17:04:06.503Z,76.34
2022-10-22T17:06:33.575Z,75.87
2022-10-22T17:09:00.738Z,76.21
2022-10-22T17:11:30.379Z,75.99
2022-10-22T17:13:57.459Z,76.28
2022-10-22T17:16:25.069Z,76.02
2022-10-22T17:18:53.880Z,76.12
2022-10-22T17:21:20.918Z,76.45
2022-10-22T17:23:48.457Z,76.15
2022-10-22T17:26:21.021Z,76.34
2022-10-22T17:28:48.391Z,76.26
2022-10-22T17:31:26.696Z,76.47
2022-10-22T17:33:54.735Z,76.70
2022-10-22T17:36:22.727Z,76.53
2022-10-22T17:38:54.002Z,76.61
2022-10-22T17:41:23.216Z,76.74
2022-10-22T17:43:50.124Z,76.97
2022-10-22T17:46:25.101Z,76.73
2022-10-22T17:48:59.683Z,76.84
2022-10-22T17:51:27.796Z,76.65
2022-10-22T17:53:54.999Z,76.99
2022-10-22T17:56:23.894Z,77.13
2022-10-22T17:58:51.144Z,77.10
2022-10-22T18:01:32.189Z,77.31
2022-10-22T18:04:04.388Z,77.42
2022-10-22T18:06:32.050Z,77.54
2022-10-22T18:08:59.195Z,77.24
2022-10-22T18:11:27.523Z,77.09
2022-10-22T18:13:56.304Z,77.45
2022-10-22T18:16:23.395Z,77.59
2022-10-22T18:18:54.373Z,77.51
2022-10-22T18:21:22.937Z,77.42
2022-10-22T18:23:50.047Z,77.55
2022-10-22T18:26:20.234Z,77.64
2022-10-22T18:28:49.877Z,77.86
2022-10-22T18:31:21.470Z,78.10
2022-10-22T18:33:48.462Z,77.87
2022-10-22T18:36:19.329Z,78.09
2022-10-22T18:38:54.554Z,78.22
2022-10-22T18:41:21.634Z,78.55
2022-10-22T18:43:52.711Z,78.20
2022-10-22T18:46:19.827Z,78.47
2022-10-22T18:48:47.595Z,78.82
2022-10-22T18:51:14.920Z,78.67
2022-10-22T18:53:44.181Z,79.03
2022-10-22T18:56:13.576Z,78.93
2022-10-22T18:58:41.820Z,78.99
2022-10-22T19:01:23.018Z,78.92
2022-10-22T19:03:50.099Z,79.07
2022-10-22T19:06:19.106Z,79.15
2022-10-22T19:08:49.249Z,79.07
2022-10-22T19:11:18.241Z,78.83
2022-10-22T19:13:45.173Z,78.97
2022-10-22T19:16:17.627Z,78.99
2022-10-22T19:18:44.567Z,79.16
2022-10-22T19:21:11.746Z,79.18
2022-10-22T19:23:38.910Z,79.43
2022-10-22T19:26:10.163Z,79.48
2022-10-22T19:28:37.814Z,79.31
2022-10-22T19:31:06.334Z,79.44
2022-10-22T19:33:34.533Z,79.71
2022-10-22T19:36:08.895Z,79.28
2022-10-22T19:38:38.469Z,79.57
2022-10-22T19:41:14.757Z,79.46
2022-10-22T19:43:42.684Z,79.69
2022-10-22T19:46:09.965Z,79.52
2022-10-22T19:48:37.303Z,79.72
2022-10-22T19:51:08.486Z,79.57
2022-10-22T19:53:36.955Z,79.83
2022-10-22T19:56:06.411Z,79.73
2022-10-22T19:58:33.816Z,79.65
2022-10-22T20:01:08.378Z,79.35
2022-10-22T20:03:36.474Z,79.50
2022-10-22T20:06:04.828Z,79.66
2022-10-22T20:08:34.691Z,79.67
2022-10-22T20:11:02.322Z,79.73
2022-10-22T20:13:29.477Z,79.84
2022-10-22T20:15:56.816Z,79.52
2022-10-22T20:18:23.779Z,79.84
2022-10-22T20:20:50.688Z,79.55
2022-10-22T20:23:18.313Z,79.71
2022-10-22T20:25:47.110Z,79.58
2022-10-22T20:28:14.769Z,79.47
2022-10-22T20:30:42.838Z,79.75
2022-10-22T20:33:09.772Z,79.94
2022-10-22T20:35:37.139Z,80.09
2022-10-22T20:38:04.933Z,80.23
2022-10-22T20:40:34.918Z,80.41
2022-10-22T20:43:02.133Z,80.31
2022-10-22T20:45:29.148Z,80.32
2022-10-22T20:48:02.723Z,80.50
2022-10-22T20:50:32.089Z,80.54
2022-10-22T20:52:59.447Z,80.45
2022-10-22T20:55:26.554Z,80.62
2022-10-22T20:57:53.457Z,80.76
2022-10-22T21:00:20.403Z,80.45
2022-10-22T21:02:50.094Z,80.58
2022-10-22T21:05:17.131Z,80.66
2022-10-22T21:07:44.256Z,80.43
2022-10-22T21:10:11.368Z,80.51
2022-10-22T21:12:41.963Z,80.79
2022-10-22T21:15:12.493Z,80.55
2022-10-22T21:17:40.735Z,80.95
2022-10-22T21:20:08.005Z,80.63
2022-10-22T21:22:34.973Z,80.86
2022-10-22T21:25:05.259Z,80.90
2022-10-22T21:27:32.308Z,80.65
2022-10-22T21:29:59.308Z,81.03
2022-10-22T21:32:28.470Z,80.96
2022-10-22T21:34:55.353Z,80.79
2022-10-22T21:37:23.263Z,80.80
2022-10-22T21:39:50.391Z,80.69
2022-10-22T21:42:18.207Z,80.74
2022-10-22T21:44:45.160Z,80.79
2022-10-22T21:47:12.151Z,80.99
2022-10-22T21:49:39.053Z,80.95
2022-10-22T21:52:07.153Z,80.99
2022-10-22T21:54:37.404Z,80.96
2022-10-22T21:57:04.605Z,81.30
2022-10-22T21:59:32.430Z,81.16
2022-10-22T22:02:04.770Z,81.30
2022-10-22T22:04:32.790Z,81.00
2022-10-22T22:06:59.685Z,81.08
2022-10-22T22:09:26.606Z,81.32
2022-10-22T22:11:53.496Z,81.35
2022-10-22T22:14:20.429Z,81.63
2022-10-22T22:16:48.034Z,81.45
2022-10-22T22:19:14.898Z,81.60
2022-10-22T22:21:41.768Z,81.73
2022-10-22T22:24:09.870Z,81.75
2022-10-22T22:26:36.766Z,81.71
2022-10-22T22:29:03.776Z,81.39
2022-10-22T22:31:34.692Z,81.71
2022-10-22T22:34:10.076Z,81.59
2022-10-22T22:36:42.177Z,81.81
2022-10-22T22:39:12.054Z,81.59
2022-10-22T22:41:39.102Z,81.57
2022-10-22T22:44:06.105Z,81.79
2022-10-22T22:46:32.969Z,81.88
2022-10-22T22:48:59.877Z,82.15
2022-10-22T22:51:26.880Z,82.06
2022-10-22T22:53:53.849Z,82.08
2022-10-22T22:56:23.261Z,81.99
2022-10-22T22:58:50.318Z,81.63
2022-10-22T23:01:21.788Z,81.66
2022-10-22T23:03:53.733Z,81.88
2022-10-22T23:06:20.613Z,81.95
2022-10-22T23:08:49.628Z,81.61
2022-10-22T23:11:16.866Z,81.94
2022-10-22T23:13:43.845Z,82.02
2022-10-22T23:16:15.198Z,82.04
2022-10-22T23:18:42.450Z,81.95
2022-10-22T23:21:16.770Z,81.70
2022-10-22T23:23:52.982Z,81.72
2022-10-22T23:26:23.753Z,81.91
2022-10-22T23:28:50.799Z,81.80
2022-10-22T23:31:19.719Z,81.84
2022-10-22T23:33:46.938Z,81.80
2022-10-22T23:36:14.205Z,82.13
2022-10-22T23:38:41.601Z,82.24
2022-10-22T23:41:08.631Z,82.27
2022-10-22T23:43:37.870Z,82.17
2022-10-22T23:46:06.342Z,82.01
2022-10-22T23:48:33.347Z,82.26
2022-10-22T23:51:06.932Z,82.21
2022-10-22T23:53:34.009Z,82.32
2022-10-22T23:56:09.347Z,82.25
2022-10-22T23:58:36.550Z,82.18
